Pagrindinis puslapis
METAR-TAF:

METAR-TAF

Oro uostai :

Samana, Dominikos Respublika

platuma: 19-11-55N, ilguma: 69-25-47W, Aukštis: 18 m

Dabartinis oras

Ataskaita buvo paskelbta 8 valandos ir 11 minutes, ne 21:00 UTC
Vėjas 8 kt iš Rytų
Temperatūra 29°C
Drėgmė 84%
Slėgis 1013 hPa
Matomumas 10 km arba daugiau
Išsisklaidę debesys ne aukštis 1800 ft
Išsisklaidę debesys ne aukštis 7000 ft

METAR: MDAB 252100Z 09008KT 9999 SCT018 SCT070 29/26 Q1013

Laikas: 01:11 (05:11 UTC)


TAF: trūkstamas

Orai ataskaitas ir orų prognozės (METAR, TAF).

turimą stotys yra geltonos ir raudonos taškus žemėlapyje.

Perkelti pele per norėdami pamatyti stoties vardą.

Tada spustelėkite, norėdami matyti oro stebėjimo ir prognozės.

Norėdami pakeisti žemėlapį: spustelėkite ant žalios mygtukų su juodo kryžiaus žemyn,; žalią mygtuką su brūkšneliu, jei norite nutolinti; arba žalių rodyklių gretimoms žemėlapius.


METAR-TAF: